sensor_id;sensor_type;location;lat;lon;timestamp;pressure;altitude;pressure_sealevel;temperature;humidity
61205;BME280;47068;55.780;37.520;2022-11-20T00:01:43;100008.53;;;-1.28;81.12
61205;BME280;47068;55.780;37.520;2022-11-20T00:04:08;100014.13;;;-1.18;81.42
61205;BME280;47068;55.780;37.520;2022-11-20T00:06:33;100022.19;;;-1.23;80.18
61205;BME280;47068;55.780;37.520;2022-11-20T00:08:59;100019.00;;;-1.45;80.85
61205;BME280;47068;55.780;37.520;2022-11-20T00:11:25;100016.50;;;-1.46;81.00
61205;BME280;47068;55.780;37.520;2022-11-20T00:13:52;100018.59;;;-1.37;82.10
61205;BME280;47068;55.780;37.520;2022-11-20T00:16:19;100023.81;;;-1.53;81.02
61205;BME280;47068;55.780;37.520;2022-11-20T00:18:45;100015.16;;;-1.53;82.22
61205;BME280;47068;55.780;37.520;2022-11-20T00:21:12;100024.72;;;-1.54;82.59
61205;BME280;47068;55.780;37.520;2022-11-20T00:23:38;100022.13;;;-1.54;82.29
61205;BME280;47068;55.780;37.520;2022-11-20T00:26:07;100019.13;;;-1.46;81.47
61205;BME280;47068;55.780;37.520;2022-11-20T00:28:33;100020.81;;;-1.45;82.74
61205;BME280;47068;55.780;37.520;2022-11-20T00:31:08;100024.84;;;-1.40;82.96
61205;BME280;47068;55.780;37.520;2022-11-20T00:33:34;100035.19;;;-1.38;81.62
61205;BME280;47068;55.780;37.520;2022-11-20T00:36:07;100023.69;;;-1.34;82.10
61205;BME280;47068;55.780;37.520;2022-11-20T00:38:32;100027.47;;;-1.40;81.18
61205;BME280;47068;55.780;37.520;2022-11-20T00:40:59;100020.03;;;-1.47;81.59
61205;BME280;47068;55.780;37.520;2022-11-20T00:43:25;100017.94;;;-1.41;83.07
61205;BME280;47068;55.780;37.520;2022-11-20T00:45:50;100025.72;;;-1.24;83.97
61205;BME280;47068;55.780;37.520;2022-11-20T00:48:16;100024.19;;;-1.28;81.25
61205;BME280;47068;55.780;37.520;2022-11-20T00:50:41;100021.16;;;-1.36;80.92
61205;BME280;47068;55.780;37.520;2022-11-20T00:53:06;100016.28;;;-1.59;81.31
61205;BME280;47068;55.780;37.520;2022-11-20T00:55:32;100024.09;;;-1.59;82.03
61205;BME280;47068;55.780;37.520;2022-11-20T00:57:57;100027.88;;;-1.47;83.30
61205;BME280;47068;55.780;37.520;2022-11-20T01:00:22;100020.56;;;-1.58;81.84
61205;BME280;47068;55.780;37.520;2022-11-20T01:02:47;100025.59;;;-1.38;83.23
61205;BME280;47068;55.780;37.520;2022-11-20T01:05:13;100021.44;;;-1.58;80.62
61205;BME280;47068;55.780;37.520;2022-11-20T01:07:38;100022.22;;;-1.73;80.51
61205;BME280;47068;55.780;37.520;2022-11-20T01:10:03;100024.16;;;-1.76;81.52
61205;BME280;47068;55.780;37.520;2022-11-20T01:12:29;100018.47;;;-1.67;81.45
61205;BME280;47068;55.780;37.520;2022-11-20T01:14:54;100025.13;;;-1.79;81.03
61205;BME280;47068;55.780;37.520;2022-11-20T01:17:19;100028.28;;;-1.72;82.26
61205;BME280;47068;55.780;37.520;2022-11-20T01:19:45;100021.28;;;-1.54;83.87
61205;BME280;47068;55.780;37.520;2022-11-20T01:22:13;100024.94;;;-1.59;81.39
61205;BME280;47068;55.780;37.520;2022-11-20T01:24:38;100020.75;;;-1.61;81.62
61205;BME280;47068;55.780;37.520;2022-11-20T01:27:03;100020.16;;;-1.83;81.95
61205;BME280;47068;55.780;37.520;2022-11-20T01:29:28;100021.84;;;-1.82;81.84
61205;BME280;47068;55.780;37.520;2022-11-20T01:31:54;100021.69;;;-1.79;82.95
61205;BME280;47068;55.780;37.520;2022-11-20T01:34:20;100025.00;;;-1.76;82.71
61205;BME280;47068;55.780;37.520;2022-11-20T01:36:45;100027.13;;;-1.67;82.52
61205;BME280;47068;55.780;37.520;2022-11-20T01:39:15;100034.25;;;-1.53;83.71
61205;BME280;47068;55.780;37.520;2022-11-20T01:41:41;100024.94;;;-1.59;81.85
61205;BME280;47068;55.780;37.520;2022-11-20T01:47:09;100032.88;;;-1.60;81.81
61205;BME280;47068;55.780;37.520;2022-11-20T01:49:54;100032.44;;;-1.68;81.45
61205;BME280;47068;55.780;37.520;2022-11-20T01:52:32;100039.41;;;-1.69;81.14
61205;BME280;47068;55.780;37.520;2022-11-20T01:55:09;100045.69;;;-1.73;81.52
61205;BME280;47068;55.780;37.520;2022-11-20T01:57:38;100046.63;;;-1.74;81.14
61205;BME280;47068;55.780;37.520;2022-11-20T02:00:08;100047.63;;;-1.76;81.39
61205;BME280;47068;55.780;37.520;2022-11-20T02:02:34;100056.38;;;-1.60;81.38
61205;BME280;47068;55.780;37.520;2022-11-20T02:05:00;100052.34;;;-1.50;81.34
61205;BME280;47068;55.780;37.520;2022-11-20T02:07:27;100058.78;;;-1.57;80.76
61205;BME280;47068;55.780;37.520;2022-11-20T02:09:53;100065.25;;;-1.47;81.63
61205;BME280;47068;55.780;37.520;2022-11-20T02:12:19;100057.63;;;-1.34;82.03
61205;BME280;47068;55.780;37.520;2022-11-20T02:15:03;100059.31;;;-1.33;80.44
61205;BME280;47068;55.780;37.520;2022-11-20T02:17:28;100057.63;;;-1.34;82.53
61205;BME280;47068;55.780;37.520;2022-11-20T02:19:54;100067.84;;;-1.14;84.04
61205;BME280;47068;55.780;37.520;2022-11-20T02:24:44;100069.75;;;-0.85;83.28
61205;BME280;47068;55.780;37.520;2022-11-20T02:27:12;100074.06;;;-0.84;82.80
61205;BME280;47068;55.780;37.520;2022-11-20T02:29:42;100075.53;;;-0.95;80.95
61205;BME280;47068;55.780;37.520;2022-11-20T02:34:53;100085.63;;;-1.38;79.67
61205;BME280;47068;55.780;37.520;2022-11-20T02:37:19;100074.13;;;-1.51;81.75
61205;BME280;47068;55.780;37.520;2022-11-20T02:39:49;100081.22;;;-1.53;80.76
61205;BME280;47068;55.780;37.520;2022-11-20T02:42:15;100082.44;;;-1.60;79.43
61205;BME280;47068;55.780;37.520;2022-11-20T02:44:40;100080.81;;;-1.63;79.91
61205;BME280;47068;55.780;37.520;2022-11-20T02:47:06;100074.75;;;-1.63;80.31
61205;BME280;47068;55.780;37.520;2022-11-20T02:49:31;100085.41;;;-1.50;81.67
61205;BME280;47068;55.780;37.520;2022-11-20T02:51:56;100085.19;;;-1.46;80.91
61205;BME280;47068;55.780;37.520;2022-11-20T02:54:22;100081.19;;;-1.36;81.93
61205;BME280;47068;55.780;37.520;2022-11-20T02:56:47;100085.94;;;-1.44;80.61
61205;BME280;47068;55.780;37.520;2022-11-20T02:59:13;100084.78;;;-1.38;81.50
61205;BME280;47068;55.780;37.520;2022-11-20T03:01:38;100087.69;;;-1.27;81.14
61205;BME280;47068;55.780;37.520;2022-11-20T03:04:03;100085.72;;;-1.06;81.35
61205;BME280;47068;55.780;37.520;2022-11-20T03:06:29;100083.38;;;-1.11;79.63
61205;BME280;47068;55.780;37.520;2022-11-20T03:08:54;100091.09;;;-1.09;80.24
61205;BME280;47068;55.780;37.520;2022-11-20T03:11:19;100092.31;;;-0.99;79.82
61205;BME280;47068;55.780;37.520;2022-11-20T03:13:45;100094.34;;;-0.89;79.71
61205;BME280;47068;55.780;37.520;2022-11-20T03:16:14;100089.13;;;-0.73;80.56
61205;BME280;47068;55.780;37.520;2022-11-20T03:18:40;100092.84;;;-0.77;77.56
61205;BME280;47068;55.780;37.520;2022-11-20T03:21:06;100096.09;;;-0.89;76.52
61205;BME280;47068;55.780;37.520;2022-11-20T03:23:31;100090.69;;;-1.02;77.46
61205;BME280;47068;55.780;37.520;2022-11-20T03:26:06;100094.09;;;-1.17;76.69
61205;BME280;47068;55.780;37.520;2022-11-20T03:28:32;100095.25;;;-1.05;78.25
61205;BME280;47068;55.780;37.520;2022-11-20T03:30:57;100101.66;;;-0.95;78.18
61205;BME280;47068;55.780;37.520;2022-11-20T03:33:22;100104.34;;;-0.97;76.68
61205;BME280;47068;55.780;37.520;2022-11-20T03:35:48;100106.47;;;-0.88;77.46
61205;BME280;47068;55.780;37.520;2022-11-20T03:38:13;100099.22;;;-0.83;76.94
61205;BME280;47068;55.780;37.520;2022-11-20T03:40:38;100098.72;;;-0.89;75.56
61205;BME280;47068;55.780;37.520;2022-11-20T03:43:03;100099.16;;;-0.81;75.90
61205;BME280;47068;55.780;37.520;2022-11-20T03:45:29;100105.81;;;-0.91;76.54
61205;BME280;47068;55.780;37.520;2022-11-20T03:47:54;100103.41;;;-1.11;79.28
61205;BME280;47068;55.780;37.520;2022-11-20T03:50:19;100106.16;;;-1.14;77.78
61205;BME280;47068;55.780;37.520;2022-11-20T03:52:45;100107.00;;;-1.47;77.62
61205;BME280;47068;55.780;37.520;2022-11-20T03:55:10;100108.28;;;-1.55;77.29
61205;BME280;47068;55.780;37.520;2022-11-20T03:57:35;100121.59;;;-1.60;77.45
61205;BME280;47068;55.780;37.520;2022-11-20T04:00:01;100112.97;;;-1.62;78.51
61205;BME280;47068;55.780;37.520;2022-11-20T04:02:26;100114.81;;;-1.64;78.12
61205;BME280;47068;55.780;37.520;2022-11-20T04:04:51;100114.38;;;-1.55;79.90
61205;BME280;47068;55.780;37.520;2022-11-20T04:07:16;100108.22;;;-1.54;78.77
61205;BME280;47068;55.780;37.520;2022-11-20T04:09:42;100115.13;;;-1.53;77.73
61205;BME280;47068;55.780;37.520;2022-11-20T04:12:07;100122.13;;;-1.53;77.83
61205;BME280;47068;55.780;37.520;2022-11-20T04:14:32;100116.06;;;-1.54;77.98
61205;BME280;47068;55.780;37.520;2022-11-20T04:16:58;100129.25;;;-1.40;79.53
61205;BME280;47068;55.780;37.520;2022-11-20T04:19:23;100125.09;;;-1.27;78.60
61205;BME280;47068;55.780;37.520;2022-11-20T04:21:48;100143.31;;;-1.09;79.20
61205;BME280;47068;55.780;37.520;2022-11-20T04:24:14;100139.66;;;-1.23;76.60
61205;BME280;47068;55.780;37.520;2022-11-20T04:26:39;100138.28;;;-1.30;75.68
61205;BME280;47068;55.780;37.520;2022-11-20T04:29:04;100138.91;;;-1.42;76.33
61205;BME280;47068;55.780;37.520;2022-11-20T04:31:33;100142.13;;;-1.37;77.20
61205;BME280;47068;55.780;37.520;2022-11-20T04:34:05;100145.66;;;-1.38;76.27
61205;BME280;47068;55.780;37.520;2022-11-20T04:36:30;100153.03;;;-1.29;77.08
61205;BME280;47068;55.780;37.520;2022-11-20T04:38:57;100149.78;;;-1.16;77.16
61205;BME280;47068;55.780;37.520;2022-11-20T04:41:26;100156.03;;;-1.19;77.91
61205;BME280;47068;55.780;37.520;2022-11-20T04:43:53;100154.94;;;-1.15;77.14
61205;BME280;47068;55.780;37.520;2022-11-20T04:46:23;100163.75;;;-1.00;76.77
61205;BME280;47068;55.780;37.520;2022-11-20T04:48:49;100163.03;;;-0.87;76.96
61205;BME280;47068;55.780;37.520;2022-11-20T04:51:14;100177.81;;;-0.70;78.63
61205;BME280;47068;55.780;37.520;2022-11-20T04:53:40;100182.53;;;-0.61;76.10
61205;BME280;47068;55.780;37.520;2022-11-20T04:56:06;100186.00;;;-0.60;74.84
61205;BME280;47068;55.780;37.520;2022-11-20T04:58:32;100184.41;;;-0.63;74.15
61205;BME280;47068;55.780;37.520;2022-11-20T05:01:04;100092.00;;;-1.10;74.76
61205;BME280;47068;55.780;37.520;2022-11-20T05:03:29;100181.81;;;-0.80;74.03
61205;BME280;47068;55.780;37.520;2022-11-20T05:05:55;100176.88;;;-0.69;74.46
61205;BME280;47068;55.780;37.520;2022-11-20T05:08:20;100177.19;;;-0.75;75.06
61205;BME280;47068;55.780;37.520;2022-11-20T05:10:45;100177.56;;;-0.98;73.88
61205;BME280;47068;55.780;37.520;2022-11-20T05:13:11;100182.81;;;-1.15;74.24
61205;BME280;47068;55.780;37.520;2022-11-20T05:15:36;100185.72;;;-1.22;75.07
61205;BME280;47068;55.780;37.520;2022-11-20T05:18:01;100190.03;;;-1.21;75.48
61205;BME280;47068;55.780;37.520;2022-11-20T05:20:27;100198.19;;;-1.27;75.62
61205;BME280;47068;55.780;37.520;2022-11-20T05:22:52;100202.00;;;-1.34;75.09
61205;BME280;47068;55.780;37.520;2022-11-20T05:25:17;100196.34;;;-1.25;75.92
61205;BME280;47068;55.780;37.520;2022-11-20T05:27:42;100202.25;;;-1.04;76.33
61205;BME280;47068;55.780;37.520;2022-11-20T05:30:08;100195.06;;;-0.83;75.58
61205;BME280;47068;55.780;37.520;2022-11-20T05:32:34;100204.88;;;-0.88;74.28
61205;BME280;47068;55.780;37.520;2022-11-20T05:34:59;100208.81;;;-0.97;74.76
61205;BME280;47068;55.780;37.520;2022-11-20T05:37:24;100214.91;;;-1.13;74.61
61205;BME280;47068;55.780;37.520;2022-11-20T05:39:49;100224.50;;;-1.14;75.67
61205;BME280;47068;55.780;37.520;2022-11-20T05:42:15;100225.97;;;-1.08;74.74
61205;BME280;47068;55.780;37.520;2022-11-20T05:44:55;100214.28;;;-1.01;75.20
61205;BME280;47068;55.780;37.520;2022-11-20T05:47:21;100217.19;;;-0.90;75.80
61205;BME280;47068;55.780;37.520;2022-11-20T05:49:46;100226.69;;;-0.89;72.57
61205;BME280;47068;55.780;37.520;2022-11-20T05:52:11;100214.28;;;-1.01;73.45
61205;BME280;47068;55.780;37.520;2022-11-20T05:54:37;100229.81;;;-0.98;73.67
61205;BME280;47068;55.780;37.520;2022-11-20T05:57:02;100231.06;;;-0.90;73.08
61205;BME280;47068;55.780;37.520;2022-11-20T05:59:28;100238.38;;;-0.96;74.76
61205;BME280;47068;55.780;37.520;2022-11-20T06:01:53;100238.03;;;-1.06;72.64
61205;BME280;47068;55.780;37.520;2022-11-20T06:04:18;100248.69;;;-0.93;74.05
61205;BME280;47068;55.780;37.520;2022-11-20T06:06:43;100251.59;;;-0.82;74.07
61205;BME280;47068;55.780;37.520;2022-11-20T06:09:09;100245.91;;;-0.73;73.95
61205;BME280;47068;55.780;37.520;2022-11-20T06:11:34;100258.81;;;-0.70;73.21
61205;BME280;47068;55.780;37.520;2022-11-20T06:13:59;100256.63;;;-0.62;73.79
61205;BME280;47068;55.780;37.520;2022-11-20T06:16:25;100253.22;;;-0.47;73.60
61205;BME280;47068;55.780;37.520;2022-11-20T06:18:50;100251.69;;;-0.51;72.26
61205;BME280;47068;55.780;37.520;2022-11-20T06:21:19;100256.00;;;-0.50;72.67
61205;BME280;47068;55.780;37.520;2022-11-20T06:23:45;100265.69;;;-0.52;73.14
61205;BME280;47068;55.780;37.520;2022-11-20T06:26:30;100273.00;;;-0.58;72.58
61205;BME280;47068;55.780;37.520;2022-11-20T06:28:55;100279.34;;;-0.47;73.57
61205;BME280;47068;55.780;37.520;2022-11-20T06:31:21;100275.03;;;-0.63;72.84
61205;BME280;47068;55.780;37.520;2022-11-20T06:33:47;100282.09;;;-0.65;72.43
61205;BME280;47068;55.780;37.520;2022-11-20T06:36:13;100286.19;;;-0.77;72.49
61205;BME280;47068;55.780;37.520;2022-11-20T06:38:39;100289.09;;;-0.83;72.77
61205;BME280;47068;55.780;37.520;2022-11-20T06:41:05;100291.72;;;-0.83;72.99
61205;BME280;47068;55.780;37.520;2022-11-20T06:43:31;100286.19;;;-0.77;72.65
61205;BME280;47068;55.780;37.520;2022-11-20T06:45:56;100280.47;;;-0.68;72.91
61205;BME280;47068;55.780;37.520;2022-11-20T06:48:22;100290.56;;;-0.77;71.99
61205;BME280;47068;55.780;37.520;2022-11-20T06:50:48;100284.50;;;-0.78;73.15
61205;BME280;47068;55.780;37.520;2022-11-20T06:53:13;100283.88;;;-0.83;71.95
61205;BME280;47068;55.780;37.520;2022-11-20T06:55:42;100281.28;;;-0.83;72.63
61205;BME280;47068;55.780;37.520;2022-11-20T06:58:09;100279.53;;;-0.67;72.24
61205;BME280;47068;55.780;37.520;2022-11-20T07:00:35;100278.16;;;-0.74;72.04
61205;BME280;47068;55.780;37.520;2022-11-20T07:03:04;100279.16;;;-0.59;72.03
61205;BME280;47068;55.780;37.520;2022-11-20T07:05:29;100280.16;;;-0.62;72.40
61205;BME280;47068;55.780;37.520;2022-11-20T07:07:57;100284.13;;;-0.55;71.31
61205;BME280;47068;55.780;37.520;2022-11-20T07:10:23;100279.53;;;-0.50;71.03
61205;BME280;47068;55.780;37.520;2022-11-20T07:12:49;100277.19;;;-0.38;71.10
61205;BME280;47068;55.780;37.520;2022-11-20T07:15:14;100278.41;;;-0.28;70.75
61205;BME280;47068;55.780;37.520;2022-11-20T07:17:40;100276.53;;;-0.26;71.12
61205;BME280;47068;55.780;37.520;2022-11-20T07:20:05;100281.50;;;-0.37;70.21
61205;BME280;47068;55.780;37.520;2022-11-20T07:22:30;100285.94;;;-0.40;70.17
61205;BME280;47068;55.780;37.520;2022-11-20T07:24:56;100283.94;;;-0.34;70.51
61205;BME280;47068;55.780;37.520;2022-11-20T07:27:21;100285.94;;;-0.40;70.25
61205;BME280;47068;55.780;37.520;2022-11-20T07:29:46;100286.88;;;-0.41;69.88
61205;BME280;47068;55.780;37.520;2022-11-20T07:32:12;100286.47;;;-0.33;70.44
61205;BME280;47068;55.780;37.520;2022-11-20T07:34:37;100285.63;;;-0.33;70.17
61205;BME280;47068;55.780;37.520;2022-11-20T07:37:02;100278.56;;;-0.31;69.56
61205;BME280;47068;55.780;37.520;2022-11-20T07:39:28;100291.59;;;-0.14;70.02
61205;BME280;47068;55.780;37.520;2022-11-20T07:41:53;100298.34;;;-0.10;69.21
61205;BME280;47068;55.780;37.520;2022-11-20T07:44:18;100300.88;;;-0.09;69.45
61205;BME280;47068;55.780;37.520;2022-11-20T07:46:43;100302.72;;;-0.11;68.92
61205;BME280;47068;55.780;37.520;2022-11-20T07:49:09;100304.34;;;-0.08;68.88
61205;BME280;47068;55.780;37.520;2022-11-20T07:51:35;100303.09;;;-0.01;69.07
61205;BME280;47068;55.780;37.520;2022-11-20T07:54:00;100305.00;;;-0.05;69.24
61205;BME280;47068;55.780;37.520;2022-11-20T07:56:26;100302.66;;;-0.09;68.88
61205;BME280;47068;55.780;37.520;2022-11-20T07:58:51;100301.88;;;-0.11;68.49
61205;BME280;47068;55.780;37.520;2022-11-20T08:01:16;100298.94;;;-0.05;68.78
61205;BME280;47068;55.780;37.520;2022-11-20T08:03:42;100302.97;;;-0.15;68.57
61205;BME280;47068;55.780;37.520;2022-11-20T08:06:07;100304.22;;;-0.22;68.80
61205;BME280;47068;55.780;37.520;2022-11-20T08:08:32;100317.81;;;-0.16;68.93
61205;BME280;47068;55.780;37.520;2022-11-20T08:10:58;100310.56;;;-0.11;68.61
61205;BME280;47068;55.780;37.520;2022-11-20T08:14:02;100306.97;;;0.08;69.69
61205;BME280;47068;55.780;37.520;2022-11-20T08:19:05;100312.53;;;0.17;68.39
61205;BME280;47068;55.780;37.520;2022-11-20T08:21:31;100318.63;;;0.18;68.50
61205;BME280;47068;55.780;37.520;2022-11-20T08:23:57;100327.91;;;0.23;68.70
61205;BME280;47068;55.780;37.520;2022-11-20T08:26:22;100322.53;;;0.26;67.85
61205;BME280;47068;55.780;37.520;2022-11-20T08:28:48;100311.94;;;0.28;68.34
61205;BME280;47068;55.780;37.520;2022-11-20T08:31:13;100312.41;;;0.20;67.66
61205;BME280;47068;55.780;37.520;2022-11-20T08:33:39;100320.94;;;0.39;68.33
61205;BME280;47068;55.780;37.520;2022-11-20T08:36:05;100330.47;;;0.41;67.47
61205;BME280;47068;55.780;37.520;2022-11-20T08:38:31;100336.22;;;0.47;67.85
61205;BME280;47068;55.780;37.520;2022-11-20T08:41:00;100338.06;;;0.61;67.18
61205;BME280;47068;55.780;37.520;2022-11-20T08:43:44;100331.97;;;0.76;67.47
61205;BME280;47068;55.780;37.520;2022-11-20T08:46:10;100333.97;;;0.71;66.57
61205;BME280;47068;55.780;37.520;2022-11-20T08:48:35;100341.94;;;0.54;66.53
61205;BME280;47068;55.780;37.520;2022-11-20T08:51:01;100340.41;;;0.50;66.94
61205;BME280;47068;55.780;37.520;2022-11-20T08:53:26;100343.97;;;0.49;66.88
61205;BME280;47068;55.780;37.520;2022-11-20T08:55:52;100341.34;;;0.64;67.77
61205;BME280;47068;55.780;37.520;2022-11-20T08:58:17;100347.69;;;0.76;67.18
61205;BME280;47068;55.780;37.520;2022-11-20T09:00:42;100356.28;;;0.78;66.87
61205;BME280;47068;55.780;37.520;2022-11-20T09:03:08;100358.03;;;0.93;66.65
61205;BME280;47068;55.780;37.520;2022-11-20T09:05:33;100369.44;;;1.08;66.98
61205;BME280;47068;55.780;37.520;2022-11-20T09:07:59;100368.31;;;1.12;66.57
61205;BME280;47068;55.780;37.520;2022-11-20T09:10:25;100370.94;;;1.12;66.49
61205;BME280;47068;55.780;37.520;2022-11-20T09:12:51;100384.16;;;1.10;67.09
61205;BME280;47068;55.780;37.520;2022-11-20T09:15:17;100386.22;;;1.19;66.96
61205;BME280;47068;55.780;37.520;2022-11-20T09:17:42;100385.31;;;1.21;66.34
61205;BME280;47068;55.780;37.520;2022-11-20T09:20:07;100386.78;;;1.25;66.83
61205;BME280;47068;55.780;37.520;2022-11-20T09:22:33;100397.41;;;1.07;65.74
61205;BME280;47068;55.780;37.520;2022-11-20T09:24:58;100403.31;;;1.11;66.61
61205;BME280;47068;55.780;37.520;2022-11-20T09:27:23;100408.47;;;1.12;66.71
61205;BME280;47068;55.780;37.520;2022-11-20T09:29:49;100413.38;;;1.18;66.80
61205;BME280;47068;55.780;37.520;2022-11-20T09:32:14;100415.56;;;1.26;66.48
61205;BME280;47068;55.780;37.520;2022-11-20T09:34:39;100423.41;;;1.26;66.74
61205;BME280;47068;55.780;37.520;2022-11-20T09:37:05;100426.72;;;1.30;67.09
61205;BME280;47068;55.780;37.520;2022-11-20T09:39:30;100425.59;;;1.34;67.03
61205;BME280;47068;55.780;37.520;2022-11-20T09:42:14;100432.38;;;1.38;66.90
61205;BME280;47068;55.780;37.520;2022-11-20T09:44:50;100428.22;;;1.34;66.46
61205;BME280;47068;55.780;37.520;2022-11-20T09:47:22;100424.69;;;1.35;66.63
61205;BME280;47068;55.780;37.520;2022-11-20T09:54:54;100425.59;;;1.34;66.51
61205;BME280;47068;55.780;37.520;2022-11-20T09:57:29;100427.38;;;1.33;66.91
61205;BME280;47068;55.780;37.520;2022-11-20T09:59:58;100419.44;;;1.35;67.01
61205;BME280;47068;55.780;37.520;2022-11-20T10:02:29;100423.47;;;1.40;67.36
61205;BME280;47068;55.780;37.520;2022-11-20T10:07:24;100426.28;;;1.37;67.86
61205;BME280;47068;55.780;37.520;2022-11-20T10:09:53;100430.50;;;1.40;67.85
61205;BME280;47068;55.780;37.520;2022-11-20T10:17:20;100437.06;;;1.17;68.60
61205;BME280;47068;55.780;37.520;2022-11-20T10:22:35;100442.25;;;1.33;69.23
61205;BME280;47068;55.780;37.520;2022-11-20T10:25:06;100433.25;;;1.23;69.45
61205;BME280;47068;55.780;37.520;2022-11-20T10:30:12;100439.56;;;1.34;69.28
61205;BME280;47068;55.780;37.520;2022-11-20T10:32:39;100444.16;;;1.31;68.95
61205;BME280;47068;55.780;37.520;2022-11-20T10:37:37;100445.53;;;1.52;69.09
61205;BME280;47068;55.780;37.520;2022-11-20T10:42:44;100441.03;;;1.54;68.23
61205;BME280;47068;55.780;37.520;2022-11-20T10:47:50;100441.53;;;1.61;67.75
61205;BME280;47068;55.780;37.520;2022-11-20T10:50:17;100457.00;;;1.65;67.50
61205;BME280;47068;55.780;37.520;2022-11-20T11:00:39;100460.38;;;1.67;67.68
61205;BME280;47068;55.780;37.520;2022-11-20T11:03:18;100471.78;;;1.66;67.06
61205;BME280;47068;55.780;37.520;2022-11-20T11:05:55;100465.25;;;1.43;67.66
61205;BME280;47068;55.780;37.520;2022-11-20T11:08:24;100461.78;;;1.43;68.01
61205;BME280;47068;55.780;37.520;2022-11-20T11:10:53;100468.53;;;1.47;67.85
61205;BME280;47068;55.780;37.520;2022-11-20T11:13:27;100477.25;;;1.47;68.00
61205;BME280;47068;55.780;37.520;2022-11-20T11:15:53;100478.94;;;1.48;68.20
61205;BME280;47068;55.780;37.520;2022-11-20T11:20:53;100488.50;;;1.49;67.49
61205;BME280;47068;55.780;37.520;2022-11-20T11:23:39;100490.19;;;1.50;67.29
61205;BME280;47068;55.780;37.520;2022-11-20T11:26:06;100478.78;;;1.51;67.00
61205;BME280;47068;55.780;37.520;2022-11-20T11:28:32;100481.50;;;1.50;66.83
61205;BME280;47068;55.780;37.520;2022-11-20T11:30:57;100484.03;;;1.51;66.66
61205;BME280;47068;55.780;37.520;2022-11-20T11:33:23;100477.25;;;1.47;65.68
61205;BME280;47068;55.780;37.520;2022-11-20T11:35:50;100482.84;;;1.41;66.40
61205;BME280;47068;55.780;37.520;2022-11-20T11:38:34;100486.16;;;1.45;65.84
61205;BME280;47068;55.780;37.520;2022-11-20T11:41:00;100490.78;;;1.55;65.67
61205;BME280;47068;55.780;37.520;2022-11-20T11:43:26;100479.34;;;1.56;65.43
61205;BME280;47068;55.780;37.520;2022-11-20T11:46:25;100482.28;;;1.66;65.13
61205;BME280;47068;55.780;37.520;2022-11-20T11:51:35;100492.53;;;1.71;63.18
61205;BME280;47068;55.780;37.520;2022-11-20T11:54:05;100489.41;;;1.64;63.85
61205;BME280;47068;55.780;37.520;2022-11-20T11:56:35;100496.34;;;1.65;64.29
61205;BME280;47068;55.780;37.520;2022-11-20T11:59:01;100486.59;;;1.67;63.97
61205;BME280;47068;55.780;37.520;2022-11-20T12:01:35;100506.84;;;1.65;63.86
61205;BME280;47068;55.780;37.520;2022-11-20T12:06:50;100496.00;;;1.71;63.66
61205;BME280;47068;55.780;37.520;2022-11-20T12:09:16;100506.97;;;1.78;63.71
61205;BME280;47068;55.780;37.520;2022-11-20T12:11:49;100503.50;;;1.77;63.04
61205;BME280;47068;55.780;37.520;2022-11-20T12:14:27;100506.66;;;1.68;62.25
61205;BME280;47068;55.780;37.520;2022-11-20T12:16:55;100500.06;;;1.61;62.13
61205;BME280;47068;55.780;37.520;2022-11-20T12:19:22;100503.63;;;1.60;62.00
61205;BME280;47068;55.780;37.520;2022-11-20T12:25:27;100500.06;;;1.61;61.77
61205;BME280;47068;55.780;37.520;2022-11-20T12:32:32;100492.28;;;1.59;61.86
61205;BME280;47068;55.780;37.520;2022-11-20T12:35:05;100498.28;;;1.62;62.42
61205;BME280;47068;55.780;37.520;2022-11-20T12:40:06;100497.03;;;1.53;61.18
61205;BME280;47068;55.780;37.520;2022-11-20T12:45:26;100495.81;;;1.44;61.84
61205;BME280;47068;55.780;37.520;2022-11-20T12:50:51;100499.06;;;1.48;61.78
61205;BME280;47068;55.780;37.520;2022-11-20T12:53:28;100500.34;;;1.56;61.94
61205;BME280;47068;55.780;37.520;2022-11-20T13:01:21;100511.59;;;1.58;62.36
61205;BME280;47068;55.780;37.520;2022-11-20T13:06:48;100514.13;;;1.60;61.21
61205;BME280;47068;55.780;37.520;2022-11-20T13:09:15;100517.50;;;1.62;60.84
61205;BME280;47068;55.780;37.520;2022-11-20T13:16:57;100523.25;;;1.53;60.44
61205;BME280;47068;55.780;37.520;2022-11-20T13:19:23;100527.00;;;1.49;60.18
61205;BME280;47068;55.780;37.520;2022-11-20T13:21:49;100527.50;;;1.40;61.45
61205;BME280;47068;55.780;37.520;2022-11-20T13:26:43;100513.97;;;1.47;61.52
61205;BME280;47068;55.780;37.520;2022-11-20T13:29:16;100524.28;;;1.50;61.45
61205;BME280;47068;55.780;37.520;2022-11-20T13:31:43;100523.75;;;1.59;61.88
61205;BME280;47068;55.780;37.520;2022-11-20T13:34:09;100526.97;;;1.65;62.07
61205;BME280;47068;55.780;37.520;2022-11-20T13:36:37;100528.00;;;1.62;61.77
61205;BME280;47068;55.780;37.520;2022-11-20T13:39:23;100530.44;;;1.65;62.15
61205;BME280;47068;55.780;37.520;2022-11-20T13:41:53;100538.47;;;1.62;61.15
61205;BME280;47068;55.780;37.520;2022-11-20T13:44:36;100537.91;;;1.57;61.22
61205;BME280;47068;55.780;37.520;2022-11-20T13:47:02;100541.81;;;1.50;61.13
61205;BME280;47068;55.780;37.520;2022-11-20T13:49:38;100537.47;;;1.49;61.63
61205;BME280;47068;55.780;37.520;2022-11-20T13:55:02;100538.16;;;1.52;61.16
61205;BME280;47068;55.780;37.520;2022-11-20T14:00:11;100563.00;;;1.61;61.35
61205;BME280;47068;55.780;37.520;2022-11-20T14:02:36;100552.19;;;1.67;61.04
61205;BME280;47068;55.780;37.520;2022-11-20T14:05:03;100552.03;;;1.70;61.29
61205;BME280;47068;55.780;37.520;2022-11-20T14:07:37;100552.50;;;1.77;61.59
61205;BME280;47068;55.780;37.520;2022-11-20T14:10:05;100555.97;;;1.77;60.93
61205;BME280;47068;55.780;37.520;2022-11-20T14:12:31;100554.56;;;1.72;60.61
61205;BME280;47068;55.780;37.520;2022-11-20T14:14:57;100550.06;;;1.74;60.47